Clarksville, TN (37043)

12:23 PM CDT del 25 Settembre 2016 (GMT -0500)
Cedarmont | | Change Station

Alt. 581 ft 36.51 °N, 87.19 °W | Updated 9 minutes ago

Clear
Sereno
89.6 °F
Sembra 94 °F
N
2.2
Vento Variabile Vento da OSO

Oggi
Massima -- | Minima -- °F
--% Possibilità di precip.
Ieri
Massima -- | Minima -- °F
Precip. -- in
Pressione 30.07 in
Visibilità 10.0 miglia
Nuvole Sereno
Indice di calore 94 °F
Punto di rugiada 69 °F
Umidità 51%
Piovosità 0.00 in
Spessore del manto nevoso Non disponibile.
6:39 AM 6:40 PM
Luna calante, 26% visible
METAR KHOP 251658Z AUTO VRB01KT 10SM CLR 31/19 A3008 RMK AO2 DZB1558E07DZB09E12DZB14E45DZB52 SLP182 P0000 T03080186
Pressione 30.07 in
Visibilità 10.0 miglia
Nuvole Sereno
Indice di calore 94 °F
Punto di rugiada 69 °F
Umidità 51%
Piovosità 0.00 in
Spessore del manto nevoso Non disponibile.
6:39 AM 6:40 PM
Luna calante, 26% visible
METAR KHOP 251658Z AUTO VRB01KT 10SM CLR 31/19 A3008 RMK AO2 DZB1558E07DZB09E12DZB14E45DZB52 SLP182 P0000 T03080186

10-Day Weather Forecast

Almanac

Astronomia

Sep. 25, 2016 Alba Tramonto
Ora attuale
Crepuscolo civile
Crepuscolo nautico
Crepuscolo astronomico
Luna
Estensione della luce visibile
Lunghezza del giorno
Tomorrow will be .
, % of the Moon is Illuminated

Gli estremi di oggi

State Highs State Lows

Community

WunderPhotos

Upload Photos

1,941,670 foto caricate!

WunderBlog® & News

Nearby

Qualità dell'aria

  Qualità dell'aria Indice AQ Inquinante
Not available.

Profondità neve

Stazione Profondità Altitudine

Attività sismica

Città  Distanza Mag. Data & Ora
Minimo Magnitudo Mostrato è 2.5.

Temperature delle acque costiere

Località Temperatura

Stations

Stazioni meteo nelle vicinanze

Ubicazione della stazione Temp. Raffreddamento del vento Punto di rugiada Umidità Vento Precip. Alt. Aggiornato Tipo
                   

Watches & Warnings

There are currently no watches in effect.